sensor_id;sensor_type;location;lat;lon;timestamp;temperature;humidity
8945;DHT22;4507;40.232;29.132;2023-05-02T00:01:41;15.40;60.50
8945;DHT22;4507;40.232;29.132;2023-05-02T00:04:10;15.40;60.50
8945;DHT22;4507;40.232;29.132;2023-05-02T00:06:39;15.40;60.30
8945;DHT22;4507;40.232;29.132;2023-05-02T00:09:09;15.40;60.30
8945;DHT22;4507;40.232;29.132;2023-05-02T00:11:40;15.40;59.90
8945;DHT22;4507;40.232;29.132;2023-05-02T00:14:27;15.40;59.60
8945;DHT22;4507;40.232;29.132;2023-05-02T00:16:56;15.40;59.50
8945;DHT22;4507;40.232;29.132;2023-05-02T00:19:25;15.40;59.60
8945;DHT22;4507;40.232;29.132;2023-05-02T00:21:54;15.40;59.60
8945;DHT22;4507;40.232;29.132;2023-05-02T00:24:23;15.40;59.60
8945;DHT22;4507;40.232;29.132;2023-05-02T00:26:54;15.40;59.40
8945;DHT22;4507;40.232;29.132;2023-05-02T00:29:24;15.30;59.20
8945;DHT22;4507;40.232;29.132;2023-05-02T00:31:53;15.30;59.10
8945;DHT22;4507;40.232;29.132;2023-05-02T00:34:21;15.30;59.10
8945;DHT22;4507;40.232;29.132;2023-05-02T00:36:51;15.30;59.00
8945;DHT22;4507;40.232;29.132;2023-05-02T00:39:19;15.20;58.70
8945;DHT22;4507;40.232;29.132;2023-05-02T00:41:49;15.30;58.70
8945;DHT22;4507;40.232;29.132;2023-05-02T00:44:25;15.30;58.50
8945;DHT22;4507;40.232;29.132;2023-05-02T00:46:54;15.20;58.10
8945;DHT22;4507;40.232;29.132;2023-05-02T00:49:24;15.20;58.00
8945;DHT22;4507;40.232;29.132;2023-05-02T00:51:53;15.20;58.00
8945;DHT22;4507;40.232;29.132;2023-05-02T00:54:22;15.20;57.90
8945;DHT22;4507;40.232;29.132;2023-05-02T00:56:51;15.30;57.90
8945;DHT22;4507;40.232;29.132;2023-05-02T00:59:20;15.20;57.70
8945;DHT22;4507;40.232;29.132;2023-05-02T01:01:56;15.20;57.70
8945;DHT22;4507;40.232;29.132;2023-05-02T01:04:34;15.20;57.70
8945;DHT22;4507;40.232;29.132;2023-05-02T01:07:20;15.20;57.70
8945;DHT22;4507;40.232;29.132;2023-05-02T01:10:00;15.20;57.40
8945;DHT22;4507;40.232;29.132;2023-05-02T01:12:39;15.10;57.90
8945;DHT22;4507;40.232;29.132;2023-05-02T01:15:13;15.10;57.20
8945;DHT22;4507;40.232;29.132;2023-05-02T01:17:46;15.10;57.10
8945;DHT22;4507;40.232;29.132;2023-05-02T01:20:19;15.00;57.00
8945;DHT22;4507;40.232;29.132;2023-05-02T01:22:50;15.00;57.10
8945;DHT22;4507;40.232;29.132;2023-05-02T01:25:27;15.00;57.20
8945;DHT22;4507;40.232;29.132;2023-05-02T01:28:04;15.00;57.40
8945;DHT22;4507;40.232;29.132;2023-05-02T01:30:40;14.90;57.50
8945;DHT22;4507;40.232;29.132;2023-05-02T01:33:29;14.90;57.80
8945;DHT22;4507;40.232;29.132;2023-05-02T01:36:00;14.90;58.10
8945;DHT22;4507;40.232;29.132;2023-05-02T01:38:32;14.80;58.20
8945;DHT22;4507;40.232;29.132;2023-05-02T01:41:03;14.70;58.30
8945;DHT22;4507;40.232;29.132;2023-05-02T01:43:34;14.70;59.20
8945;DHT22;4507;40.232;29.132;2023-05-02T01:46:08;14.70;58.80
8945;DHT22;4507;40.232;29.132;2023-05-02T01:48:39;14.60;59.00
8945;DHT22;4507;40.232;29.132;2023-05-02T01:51:11;14.60;59.20
8945;DHT22;4507;40.232;29.132;2023-05-02T01:54:02;14.60;59.40
8945;DHT22;4507;40.232;29.132;2023-05-02T01:56:34;14.50;59.50
8945;DHT22;4507;40.232;29.132;2023-05-02T01:59:05;14.50;59.50
8945;DHT22;4507;40.232;29.132;2023-05-02T02:01:38;14.50;59.50
8945;DHT22;4507;40.232;29.132;2023-05-02T02:04:27;14.40;59.70
8945;DHT22;4507;40.232;29.132;2023-05-02T02:07:01;14.40;60.00
8945;DHT22;4507;40.232;29.132;2023-05-02T02:09:31;14.40;60.00
8945;DHT22;4507;40.232;29.132;2023-05-02T02:12:05;14.30;60.00
8945;DHT22;4507;40.232;29.132;2023-05-02T02:14:37;14.20;60.10
8945;DHT22;4507;40.232;29.132;2023-05-02T02:17:12;14.20;60.30
8945;DHT22;4507;40.232;29.132;2023-05-02T02:19:43;14.20;60.40
8945;DHT22;4507;40.232;29.132;2023-05-02T02:22:15;14.10;60.40
8945;DHT22;4507;40.232;29.132;2023-05-02T02:24:47;14.00;60.50
8945;DHT22;4507;40.232;29.132;2023-05-02T02:27:19;14.00;60.80
8945;DHT22;4507;40.232;29.132;2023-05-02T02:30:08;14.00;61.00
8945;DHT22;4507;40.232;29.132;2023-05-02T02:32:38;14.00;61.40
8945;DHT22;4507;40.232;29.132;2023-05-02T02:35:08;14.00;61.60
8945;DHT22;4507;40.232;29.132;2023-05-02T02:37:40;14.00;61.60
8945;DHT22;4507;40.232;29.132;2023-05-02T02:40:20;13.90;61.30
8945;DHT22;4507;40.232;29.132;2023-05-02T02:42:58;13.90;61.30
8945;DHT22;4507;40.232;29.132;2023-05-02T02:45:37;13.90;61.40
8945;DHT22;4507;40.232;29.132;2023-05-02T02:48:17;13.90;61.50
8945;DHT22;4507;40.232;29.132;2023-05-02T02:50:56;13.80;61.70
8945;DHT22;4507;40.232;29.132;2023-05-02T02:53:41;13.80;61.90
8945;DHT22;4507;40.232;29.132;2023-05-02T02:56:15;13.80;62.10
8945;DHT22;4507;40.232;29.132;2023-05-02T02:58:50;13.80;61.90
8945;DHT22;4507;40.232;29.132;2023-05-02T03:01:25;13.80;61.90
8945;DHT22;4507;40.232;29.132;2023-05-02T03:03:57;13.80;61.70
8945;DHT22;4507;40.232;29.132;2023-05-02T03:06:26;13.80;61.70
8945;DHT22;4507;40.232;29.132;2023-05-02T03:08:57;13.80;61.90
8945;DHT22;4507;40.232;29.132;2023-05-02T03:11:30;13.80;62.00
8945;DHT22;4507;40.232;29.132;2023-05-02T03:13:59;13.80;62.70
8945;DHT22;4507;40.232;29.132;2023-05-02T03:16:36;13.80;62.90
8945;DHT22;4507;40.232;29.132;2023-05-02T03:19:11;13.80;63.30
8945;DHT22;4507;40.232;29.132;2023-05-02T03:21:43;13.70;63.50
8945;DHT22;4507;40.232;29.132;2023-05-02T03:24:17;13.70;63.70
8945;DHT22;4507;40.232;29.132;2023-05-02T03:26:47;13.60;63.90
8945;DHT22;4507;40.232;29.132;2023-05-02T03:29:22;13.50;64.00
8945;DHT22;4507;40.232;29.132;2023-05-02T03:31:54;13.40;64.30
8945;DHT22;4507;40.232;29.132;2023-05-02T03:34:26;13.40;64.80
8945;DHT22;4507;40.232;29.132;2023-05-02T03:36:56;13.40;65.00
8945;DHT22;4507;40.232;29.132;2023-05-02T03:39:27;13.40;64.70
8945;DHT22;4507;40.232;29.132;2023-05-02T03:41:59;13.50;64.80
8945;DHT22;4507;40.232;29.132;2023-05-02T03:44:29;13.60;64.60
8945;DHT22;4507;40.232;29.132;2023-05-02T03:46:58;13.70;64.90
8945;DHT22;4507;40.232;29.132;2023-05-02T03:49:29;13.70;65.70
8945;DHT22;4507;40.232;29.132;2023-05-02T03:51:58;13.70;65.00
8945;DHT22;4507;40.232;29.132;2023-05-02T03:54:32;13.70;65.00
8945;DHT22;4507;40.232;29.132;2023-05-02T03:57:01;13.70;65.10
8945;DHT22;4507;40.232;29.132;2023-05-02T03:59:32;13.70;65.50
8945;DHT22;4507;40.232;29.132;2023-05-02T04:02:11;13.60;65.60
8945;DHT22;4507;40.232;29.132;2023-05-02T04:04:45;13.60;65.90
8945;DHT22;4507;40.232;29.132;2023-05-02T04:07:18;13.60;66.10
8945;DHT22;4507;40.232;29.132;2023-05-02T04:09:57;13.50;66.30
8945;DHT22;4507;40.232;29.132;2023-05-02T04:12:27;13.50;66.70
8945;DHT22;4507;40.232;29.132;2023-05-02T04:14:56;13.60;66.70
8945;DHT22;4507;40.232;29.132;2023-05-02T04:17:28;13.60;65.60
8945;DHT22;4507;40.232;29.132;2023-05-02T04:19:59;13.70;65.40
8945;DHT22;4507;40.232;29.132;2023-05-02T04:22:33;13.90;65.60
8945;DHT22;4507;40.232;29.132;2023-05-02T04:25:21;14.00;65.70
8945;DHT22;4507;40.232;29.132;2023-05-02T04:27:52;14.10;64.70
8945;DHT22;4507;40.232;29.132;2023-05-02T04:30:24;14.20;63.70
8945;DHT22;4507;40.232;29.132;2023-05-02T04:32:59;14.30;63.60
8945;DHT22;4507;40.232;29.132;2023-05-02T04:35:52;14.50;63.80
8945;DHT22;4507;40.232;29.132;2023-05-02T04:38:22;14.60;63.60
8945;DHT22;4507;40.232;29.132;2023-05-02T04:40:52;14.60;62.70
8945;DHT22;4507;40.232;29.132;2023-05-02T04:43:30;14.70;62.90
8945;DHT22;4507;40.232;29.132;2023-05-02T04:46:01;14.80;62.20
8945;DHT22;4507;40.232;29.132;2023-05-02T04:48:37;14.90;62.10
8945;DHT22;4507;40.232;29.132;2023-05-02T04:51:10;14.90;61.50
8945;DHT22;4507;40.232;29.132;2023-05-02T04:53:43;14.90;61.00
8945;DHT22;4507;40.232;29.132;2023-05-02T04:56:12;15.00;61.10
8945;DHT22;4507;40.232;29.132;2023-05-02T04:58:41;15.10;61.30
8945;DHT22;4507;40.232;29.132;2023-05-02T05:01:12;15.20;61.20
8945;DHT22;4507;40.232;29.132;2023-05-02T05:03:41;15.30;61.10
8945;DHT22;4507;40.232;29.132;2023-05-02T05:06:12;15.50;60.50
8945;DHT22;4507;40.232;29.132;2023-05-02T05:08:43;15.60;59.40
8945;DHT22;4507;40.232;29.132;2023-05-02T05:11:15;15.70;58.80
8945;DHT22;4507;40.232;29.132;2023-05-02T05:13:44;15.70;58.80
8945;DHT22;4507;40.232;29.132;2023-05-02T05:16:14;15.70;58.80
8945;DHT22;4507;40.232;29.132;2023-05-02T05:18:43;15.70;58.60
8945;DHT22;4507;40.232;29.132;2023-05-02T05:21:15;15.80;58.60
8945;DHT22;4507;40.232;29.132;2023-05-02T05:23:45;15.80;58.50
8945;DHT22;4507;40.232;29.132;2023-05-02T05:26:19;15.90;58.30
8945;DHT22;4507;40.232;29.132;2023-05-02T05:28:48;16.00;58.00
8945;DHT22;4507;40.232;29.132;2023-05-02T05:31:20;16.20;57.90
8945;DHT22;4507;40.232;29.132;2023-05-02T05:33:54;16.30;57.30
8945;DHT22;4507;40.232;29.132;2023-05-02T05:36:26;16.40;57.00
8945;DHT22;4507;40.232;29.132;2023-05-02T05:38:55;16.40;56.70
8945;DHT22;4507;40.232;29.132;2023-05-02T05:41:24;16.50;56.60
8945;DHT22;4507;40.232;29.132;2023-05-02T05:44:00;16.60;56.30
8945;DHT22;4507;40.232;29.132;2023-05-02T05:46:30;16.60;56.40
8945;DHT22;4507;40.232;29.132;2023-05-02T05:49:00;16.70;56.60
8945;DHT22;4507;40.232;29.132;2023-05-02T05:51:31;16.80;56.60
8945;DHT22;4507;40.232;29.132;2023-05-02T05:54:00;16.80;56.60
8945;DHT22;4507;40.232;29.132;2023-05-02T05:56:29;16.90;56.40
8945;DHT22;4507;40.232;29.132;2023-05-02T05:59:07;17.00;56.30
8945;DHT22;4507;40.232;29.132;2023-05-02T06:01:37;17.10;56.90
8945;DHT22;4507;40.232;29.132;2023-05-02T06:04:07;17.20;57.10
8945;DHT22;4507;40.232;29.132;2023-05-02T06:06:41;17.30;55.90
8945;DHT22;4507;40.232;29.132;2023-05-02T06:09:10;17.40;55.90
8945;DHT22;4507;40.232;29.132;2023-05-02T06:11:39;17.50;56.00
8945;DHT22;4507;40.232;29.132;2023-05-02T06:14:08;17.60;55.90
8945;DHT22;4507;40.232;29.132;2023-05-02T06:16:37;17.60;55.70
8945;DHT22;4507;40.232;29.132;2023-05-02T06:19:06;17.80;55.60
8945;DHT22;4507;40.232;29.132;2023-05-02T06:21:35;17.80;55.00
8945;DHT22;4507;40.232;29.132;2023-05-02T06:24:06;17.90;54.60
8945;DHT22;4507;40.232;29.132;2023-05-02T06:26:35;18.00;54.60
8945;DHT22;4507;40.232;29.132;2023-05-02T06:29:04;18.00;54.60
8945;DHT22;4507;40.232;29.132;2023-05-02T06:31:33;18.10;54.30
8945;DHT22;4507;40.232;29.132;2023-05-02T06:34:02;18.20;53.80
8945;DHT22;4507;40.232;29.132;2023-05-02T06:36:31;18.30;53.40
8945;DHT22;4507;40.232;29.132;2023-05-02T06:39:00;18.30;53.10
8945;DHT22;4507;40.232;29.132;2023-05-02T06:41:30;18.40;52.60
8945;DHT22;4507;40.232;29.132;2023-05-02T06:44:00;18.50;52.50
8945;DHT22;4507;40.232;29.132;2023-05-02T06:46:29;18.60;52.30
8945;DHT22;4507;40.232;29.132;2023-05-02T06:48:58;18.70;51.90
8945;DHT22;4507;40.232;29.132;2023-05-02T06:51:27;18.80;51.30
8945;DHT22;4507;40.232;29.132;2023-05-02T06:53:56;18.80;51.40
8945;DHT22;4507;40.232;29.132;2023-05-02T06:56:25;18.90;51.40
8945;DHT22;4507;40.232;29.132;2023-05-02T06:58:56;19.00;51.60
8945;DHT22;4507;40.232;29.132;2023-05-02T07:01:25;19.10;51.70
8945;DHT22;4507;40.232;29.132;2023-05-02T07:03:54;19.20;51.30
8945;DHT22;4507;40.232;29.132;2023-05-02T07:06:23;19.20;51.00
8945;DHT22;4507;40.232;29.132;2023-05-02T07:08:52;19.30;50.80
8945;DHT22;4507;40.232;29.132;2023-05-02T07:11:21;19.30;50.70
8945;DHT22;4507;40.232;29.132;2023-05-02T07:13:50;19.40;51.60
8945;DHT22;4507;40.232;29.132;2023-05-02T07:16:20;19.60;51.90
8945;DHT22;4507;40.232;29.132;2023-05-02T07:18:50;19.70;51.00
8945;DHT22;4507;40.232;29.132;2023-05-02T07:21:19;19.80;50.40
8945;DHT22;4507;40.232;29.132;2023-05-02T07:23:47;19.80;50.10
8945;DHT22;4507;40.232;29.132;2023-05-02T07:26:16;19.90;49.70
8945;DHT22;4507;40.232;29.132;2023-05-02T07:28:46;19.90;49.80
8945;DHT22;4507;40.232;29.132;2023-05-02T07:31:15;19.90;49.70
8945;DHT22;4507;40.232;29.132;2023-05-02T07:34:05;20.00;49.80
8945;DHT22;4507;40.232;29.132;2023-05-02T07:36:34;20.00;49.60
8945;DHT22;4507;40.232;29.132;2023-05-02T07:39:22;20.10;50.00
8945;DHT22;4507;40.232;29.132;2023-05-02T07:41:52;20.20;50.90
8945;DHT22;4507;40.232;29.132;2023-05-02T07:44:21;20.30;50.60
8945;DHT22;4507;40.232;29.132;2023-05-02T07:46:51;20.50;50.30
8945;DHT22;4507;40.232;29.132;2023-05-02T07:49:22;20.60;50.80
8945;DHT22;4507;40.232;29.132;2023-05-02T07:51:51;20.70;50.90
8945;DHT22;4507;40.232;29.132;2023-05-02T07:54:21;20.90;49.80
8945;DHT22;4507;40.232;29.132;2023-05-02T07:56:52;20.90;49.30
8945;DHT22;4507;40.232;29.132;2023-05-02T07:59:24;21.00;48.90
8945;DHT22;4507;40.232;29.132;2023-05-02T08:01:53;21.00;49.30
8945;DHT22;4507;40.232;29.132;2023-05-02T08:04:23;21.00;49.20
8945;DHT22;4507;40.232;29.132;2023-05-02T08:06:54;21.10;49.30
8945;DHT22;4507;40.232;29.132;2023-05-02T08:09:23;21.20;49.70
8945;DHT22;4507;40.232;29.132;2023-05-02T08:11:52;21.30;50.50
8945;DHT22;4507;40.232;29.132;2023-05-02T08:14:21;21.40;50.70
8945;DHT22;4507;40.232;29.132;2023-05-02T08:16:50;21.60;50.40
8945;DHT22;4507;40.232;29.132;2023-05-02T08:19:19;21.80;49.70
8945;DHT22;4507;40.232;29.132;2023-05-02T08:21:50;21.80;49.50
8945;DHT22;4507;40.232;29.132;2023-05-02T08:24:19;21.90;48.10
8945;DHT22;4507;40.232;29.132;2023-05-02T08:26:48;22.00;48.60
8945;DHT22;4507;40.232;29.132;2023-05-02T08:29:17;22.00;47.40
8945;DHT22;4507;40.232;29.132;2023-05-02T08:31:47;22.10;48.10
8945;DHT22;4507;40.232;29.132;2023-05-02T08:34:16;22.10;47.90
8945;DHT22;4507;40.232;29.132;2023-05-02T08:36:46;22.20;48.10
8945;DHT22;4507;40.232;29.132;2023-05-02T08:39:16;22.20;49.20
8945;DHT22;4507;40.232;29.132;2023-05-02T08:41:58;22.40;48.90
8945;DHT22;4507;40.232;29.132;2023-05-02T08:44:28;22.50;48.30
8945;DHT22;4507;40.232;29.132;2023-05-02T08:47:01;22.60;47.40
8945;DHT22;4507;40.232;29.132;2023-05-02T08:49:31;22.70;47.10
8945;DHT22;4507;40.232;29.132;2023-05-02T08:52:01;22.80;44.80
8945;DHT22;4507;40.232;29.132;2023-05-02T08:54:32;22.80;45.20
8945;DHT22;4507;40.232;29.132;2023-05-02T08:57:03;22.90;45.90
8945;DHT22;4507;40.232;29.132;2023-05-02T08:59:50;23.00;44.80
8945;DHT22;4507;40.232;29.132;2023-05-02T09:02:42;23.10;44.60
8945;DHT22;4507;40.232;29.132;2023-05-02T09:05:18;23.10;43.30
8945;DHT22;4507;40.232;29.132;2023-05-02T09:07:50;23.20;43.00
8945;DHT22;4507;40.232;29.132;2023-05-02T09:10:41;23.30;43.00
8945;DHT22;4507;40.232;29.132;2023-05-02T09:13:33;23.40;41.90
8945;DHT22;4507;40.232;29.132;2023-05-02T09:16:05;23.50;41.50
8945;DHT22;4507;40.232;29.132;2023-05-02T09:18:36;23.60;40.80
8945;DHT22;4507;40.232;29.132;2023-05-02T09:21:07;23.70;40.30
8945;DHT22;4507;40.232;29.132;2023-05-02T09:23:40;23.70;40.50
8945;DHT22;4507;40.232;29.132;2023-05-02T09:26:18;23.80;41.20
8945;DHT22;4507;40.232;29.132;2023-05-02T09:28:48;23.90;41.90
8945;DHT22;4507;40.232;29.132;2023-05-02T09:31:19;24.10;42.40
8945;DHT22;4507;40.232;29.132;2023-05-02T09:33:52;24.20;41.90
8945;DHT22;4507;40.232;29.132;2023-05-02T09:36:21;24.40;41.60
8945;DHT22;4507;40.232;29.132;2023-05-02T09:38:50;24.40;39.70
8945;DHT22;4507;40.232;29.132;2023-05-02T09:41:21;24.50;38.70
8945;DHT22;4507;40.232;29.132;2023-05-02T09:43:57;24.50;38.00
8945;DHT22;4507;40.232;29.132;2023-05-02T09:46:38;24.60;38.30
8945;DHT22;4507;40.232;29.132;2023-05-02T09:49:08;24.70;38.70
8945;DHT22;4507;40.232;29.132;2023-05-02T09:51:38;24.90;37.90
8945;DHT22;4507;40.232;29.132;2023-05-02T09:54:07;24.90;37.10
8945;DHT22;4507;40.232;29.132;2023-05-02T09:56:54;25.00;36.90
8945;DHT22;4507;40.232;29.132;2023-05-02T09:59:24;25.10;37.60
8945;DHT22;4507;40.232;29.132;2023-05-02T10:01:56;25.20;38.40
8945;DHT22;4507;40.232;29.132;2023-05-02T10:04:27;25.20;38.60
8945;DHT22;4507;40.232;29.132;2023-05-02T10:06:58;25.40;38.00
8945;DHT22;4507;40.232;29.132;2023-05-02T10:09:28;25.60;38.50
8945;DHT22;4507;40.232;29.132;2023-05-02T10:12:02;25.70;37.80
8945;DHT22;4507;40.232;29.132;2023-05-02T10:14:38;25.90;37.60
8945;DHT22;4507;40.232;29.132;2023-05-02T10:17:11;26.00;37.20
8945;DHT22;4507;40.232;29.132;2023-05-02T10:19:50;26.10;35.90
8945;DHT22;4507;40.232;29.132;2023-05-02T10:22:22;26.20;35.20
8945;DHT22;4507;40.232;29.132;2023-05-02T10:24:53;26.30;35.40
8945;DHT22;4507;40.232;29.132;2023-05-02T10:27:24;26.40;35.70
8945;DHT22;4507;40.232;29.132;2023-05-02T10:29:53;26.60;35.90
8945;DHT22;4507;40.232;29.132;2023-05-02T10:32:27;26.70;35.40
8945;DHT22;4507;40.232;29.132;2023-05-02T10:34:56;26.80;34.20
8945;DHT22;4507;40.232;29.132;2023-05-02T10:37:31;26.90;34.60
8945;DHT22;4507;40.232;29.132;2023-05-02T10:40:01;27.00;32.50
8945;DHT22;4507;40.232;29.132;2023-05-02T10:42:37;27.00;32.50
8945;DHT22;4507;40.232;29.132;2023-05-02T10:45:11;27.10;33.60
8945;DHT22;4507;40.232;29.132;2023-05-02T10:47:41;27.10;33.40
8945;DHT22;4507;40.232;29.132;2023-05-02T10:50:11;27.10;34.10
8945;DHT22;4507;40.232;29.132;2023-05-02T10:52:40;27.20;34.00
8945;DHT22;4507;40.232;29.132;2023-05-02T10:55:14;27.30;33.00
8945;DHT22;4507;40.232;29.132;2023-05-02T10:58:23;27.30;32.50
8945;DHT22;4507;40.232;29.132;2023-05-02T11:00:52;27.40;33.10
8945;DHT22;4507;40.232;29.132;2023-05-02T11:03:55;27.50;34.00
8945;DHT22;4507;40.232;29.132;2023-05-02T11:06:26;27.60;33.50
8945;DHT22;4507;40.232;29.132;2023-05-02T11:11:54;28.00;32.80
8945;DHT22;4507;40.232;29.132;2023-05-02T11:14:46;28.10;33.10
8945;DHT22;4507;40.232;29.132;2023-05-02T11:17:57;28.40;32.70
8945;DHT22;4507;40.232;29.132;2023-05-02T11:20:27;28.70;32.80
8945;DHT22;4507;40.232;29.132;2023-05-02T11:22:58;29.00;32.50
8945;DHT22;4507;40.232;29.132;2023-05-02T11:25:36;29.30;30.70
8945;DHT22;4507;40.232;29.132;2023-05-02T11:28:07;29.50;30.00
8945;DHT22;4507;40.232;29.132;2023-05-02T11:30:45;29.70;30.40
8945;DHT22;4507;40.232;29.132;2023-05-02T11:33:16;29.90;29.10
8945;DHT22;4507;40.232;29.132;2023-05-02T11:35:47;30.10;28.90
8945;DHT22;4507;40.232;29.132;2023-05-02T11:38:19;30.20;28.70
8945;DHT22;4507;40.232;29.132;2023-05-02T11:41:04;30.40;28.70
8945;DHT22;4507;40.232;29.132;2023-05-02T11:43:33;30.60;28.40
8945;DHT22;4507;40.232;29.132;2023-05-02T11:46:06;30.80;27.90
8945;DHT22;4507;40.232;29.132;2023-05-02T11:48:38;30.80;27.50
8945;DHT22;4507;40.232;29.132;2023-05-02T11:51:07;31.10;27.40
8945;DHT22;4507;40.232;29.132;2023-05-02T11:53:39;31.10;27.10
8945;DHT22;4507;40.232;29.132;2023-05-02T11:56:09;31.20;27.20
8945;DHT22;4507;40.232;29.132;2023-05-02T11:58:38;31.10;27.10
8945;DHT22;4507;40.232;29.132;2023-05-02T12:01:13;31.20;27.60
8945;DHT22;4507;40.232;29.132;2023-05-02T12:03:43;31.10;27.50
8945;DHT22;4507;40.232;29.132;2023-05-02T12:06:16;31.00;27.50
8945;DHT22;4507;40.232;29.132;2023-05-02T12:08:48;30.90;27.60
8945;DHT22;4507;40.232;29.132;2023-05-02T12:11:22;30.80;27.70
8945;DHT22;4507;40.232;29.132;2023-05-02T12:13:52;30.60;27.80
8945;DHT22;4507;40.232;29.132;2023-05-02T12:16:24;30.50;28.00
8945;DHT22;4507;40.232;29.132;2023-05-02T12:18:53;30.40;28.10
8945;DHT22;4507;40.232;29.132;2023-05-02T12:21:24;30.30;28.50
8945;DHT22;4507;40.232;29.132;2023-05-02T12:23:55;30.20;28.50
8945;DHT22;4507;40.232;29.132;2023-05-02T12:26:25;30.10;28.30
8945;DHT22;4507;40.232;29.132;2023-05-02T12:28:57;30.00;27.60
8945;DHT22;4507;40.232;29.132;2023-05-02T12:31:29;29.80;27.90
8945;DHT22;4507;40.232;29.132;2023-05-02T12:33:59;29.60;27.80
8945;DHT22;4507;40.232;29.132;2023-05-02T12:36:28;29.40;27.70
8945;DHT22;4507;40.232;29.132;2023-05-02T12:38:58;29.20;27.20
8945;DHT22;4507;40.232;29.132;2023-05-02T12:41:31;28.90;27.30
8945;DHT22;4507;40.232;29.132;2023-05-02T12:44:01;28.70;27.70
8945;DHT22;4507;40.232;29.132;2023-05-02T12:46:32;28.50;27.90
8945;DHT22;4507;40.232;29.132;2023-05-02T12:49:02;28.40;27.90
8945;DHT22;4507;40.232;29.132;2023-05-02T12:51:53;28.30;28.00
8945;DHT22;4507;40.232;29.132;2023-05-02T12:54:22;28.20;27.50
8945;DHT22;4507;40.232;29.132;2023-05-02T12:56:53;28.10;27.60
8945;DHT22;4507;40.232;29.132;2023-05-02T12:59:26;28.00;27.20
8945;DHT22;4507;40.232;29.132;2023-05-02T13:01:57;27.90;27.20
8945;DHT22;4507;40.232;29.132;2023-05-02T13:04:34;27.90;27.30
8945;DHT22;4507;40.232;29.132;2023-05-02T13:07:04;27.90;27.30
8945;DHT22;4507;40.232;29.132;2023-05-02T13:09:33;27.80;27.10
8945;DHT22;4507;40.232;29.132;2023-05-02T13:12:02;27.80;27.20
8945;DHT22;4507;40.232;29.132;2023-05-02T13:14:32;27.90;27.40
8945;DHT22;4507;40.232;29.132;2023-05-02T13:17:02;27.90;27.30
8945;DHT22;4507;40.232;29.132;2023-05-02T13:19:32;27.90;27.40
8945;DHT22;4507;40.232;29.132;2023-05-02T13:22:01;27.90;26.60
8945;DHT22;4507;40.232;29.132;2023-05-02T13:24:30;27.90;26.80
8945;DHT22;4507;40.232;29.132;2023-05-02T13:26:59;27.80;27.30
8945;DHT22;4507;40.232;29.132;2023-05-02T13:29:48;27.70;27.10
8945;DHT22;4507;40.232;29.132;2023-05-02T13:32:19;27.70;27.40
8945;DHT22;4507;40.232;29.132;2023-05-02T13:35:08;27.70;27.30
8945;DHT22;4507;40.232;29.132;2023-05-02T13:37:40;27.70;27.60
8945;DHT22;4507;40.232;29.132;2023-05-02T13:40:10;27.70;27.40
8945;DHT22;4507;40.232;29.132;2023-05-02T13:42:39;27.70;27.40
8945;DHT22;4507;40.232;29.132;2023-05-02T13:45:09;27.70;27.80
8945;DHT22;4507;40.232;29.132;2023-05-02T13:47:43;27.70;27.80
8945;DHT22;4507;40.232;29.132;2023-05-02T13:50:15;27.70;27.90
8945;DHT22;4507;40.232;29.132;2023-05-02T13:52:47;27.70;27.30
8945;DHT22;4507;40.232;29.132;2023-05-02T13:55:16;27.70;28.20
8945;DHT22;4507;40.232;29.132;2023-05-02T13:57:45;27.60;27.70
8945;DHT22;4507;40.232;29.132;2023-05-02T14:00:14;27.60;28.20
8945;DHT22;4507;40.232;29.132;2023-05-02T14:02:45;27.60;28.20
8945;DHT22;4507;40.232;29.132;2023-05-02T14:05:15;27.50;27.90
8945;DHT22;4507;40.232;29.132;2023-05-02T14:07:44;27.50;27.90
8945;DHT22;4507;40.232;29.132;2023-05-02T14:10:13;27.40;28.50
8945;DHT22;4507;40.232;29.132;2023-05-02T14:12:42;27.30;28.80
8945;DHT22;4507;40.232;29.132;2023-05-02T14:15:11;27.20;27.90
8945;DHT22;4507;40.232;29.132;2023-05-02T14:17:40;27.10;27.70
8945;DHT22;4507;40.232;29.132;2023-05-02T14:20:11;27.10;27.70
8945;DHT22;4507;40.232;29.132;2023-05-02T14:22:40;27.00;27.60
8945;DHT22;4507;40.232;29.132;2023-05-02T14:25:10;27.00;28.30
8945;DHT22;4507;40.232;29.132;2023-05-02T14:27:39;27.00;28.90
8945;DHT22;4507;40.232;29.132;2023-05-02T14:30:08;26.90;29.60
8945;DHT22;4507;40.232;29.132;2023-05-02T14:32:38;26.80;29.90
8945;DHT22;4507;40.232;29.132;2023-05-02T14:35:07;26.70;30.40
8945;DHT22;4507;40.232;29.132;2023-05-02T14:37:38;26.60;31.20
8945;DHT22;4507;40.232;29.132;2023-05-02T14:40:09;26.60;31.40
8945;DHT22;4507;40.232;29.132;2023-05-02T14:42:38;26.50;31.50
8945;DHT22;4507;40.232;29.132;2023-05-02T14:45:08;26.40;32.00
8945;DHT22;4507;40.232;29.132;2023-05-02T14:47:37;26.40;32.10
8945;DHT22;4507;40.232;29.132;2023-05-02T14:50:07;26.30;31.20
8945;DHT22;4507;40.232;29.132;2023-05-02T14:52:37;26.30;31.60
8945;DHT22;4507;40.232;29.132;2023-05-02T14:55:08;26.20;31.90
8945;DHT22;4507;40.232;29.132;2023-05-02T14:57:37;26.20;32.20
8945;DHT22;4507;40.232;29.132;2023-05-02T15:00:07;26.10;32.00
8945;DHT22;4507;40.232;29.132;2023-05-02T15:02:36;26.10;31.70
8945;DHT22;4507;40.232;29.132;2023-05-02T15:05:06;26.00;32.30
8945;DHT22;4507;40.232;29.132;2023-05-02T15:07:40;26.00;32.40
8945;DHT22;4507;40.232;29.132;2023-05-02T15:10:10;26.00;32.20
8945;DHT22;4507;40.232;29.132;2023-05-02T15:12:39;26.00;32.70
8945;DHT22;4507;40.232;29.132;2023-05-02T15:15:28;25.90;33.20
8945;DHT22;4507;40.232;29.132;2023-05-02T15:17:57;25.90;33.80
8945;DHT22;4507;40.232;29.132;2023-05-02T15:20:26;25.80;33.90
8945;DHT22;4507;40.232;29.132;2023-05-02T15:22:57;25.80;33.90
8945;DHT22;4507;40.232;29.132;2023-05-02T15:25:29;25.70;33.90
8945;DHT22;4507;40.232;29.132;2023-05-02T15:27:59;25.70;34.30
8945;DHT22;4507;40.232;29.132;2023-05-02T15:30:28;25.60;34.70
8945;DHT22;4507;40.232;29.132;2023-05-02T15:32:58;25.60;34.80
8945;DHT22;4507;40.232;29.132;2023-05-02T15:35:27;25.50;35.10
8945;DHT22;4507;40.232;29.132;2023-05-02T15:37:57;25.40;35.10
8945;DHT22;4507;40.232;29.132;2023-05-02T15:40:26;25.30;35.60
8945;DHT22;4507;40.232;29.132;2023-05-02T15:42:56;25.20;36.00
8945;DHT22;4507;40.232;29.132;2023-05-02T15:45:25;25.10;36.60
8945;DHT22;4507;40.232;29.132;2023-05-02T15:47:54;25.00;35.70
8945;DHT22;4507;40.232;29.132;2023-05-02T15:50:23;24.90;36.00
8945;DHT22;4507;40.232;29.132;2023-05-02T15:52:52;24.90;36.40
8945;DHT22;4507;40.232;29.132;2023-05-02T15:55:23;24.80;35.40
8945;DHT22;4507;40.232;29.132;2023-05-02T15:58:11;24.70;34.60
8945;DHT22;4507;40.232;29.132;2023-05-02T16:00:40;24.60;34.00
8945;DHT22;4507;40.232;29.132;2023-05-02T16:03:10;24.50;33.20
8945;DHT22;4507;40.232;29.132;2023-05-02T16:05:40;24.50;32.90
8945;DHT22;4507;40.232;29.132;2023-05-02T16:08:09;24.40;32.90
8945;DHT22;4507;40.232;29.132;2023-05-02T16:10:40;24.40;33.30
8945;DHT22;4507;40.232;29.132;2023-05-02T16:13:10;24.30;33.10
8945;DHT22;4507;40.232;29.132;2023-05-02T16:15:39;24.20;33.10
8945;DHT22;4507;40.232;29.132;2023-05-02T16:18:08;24.10;33.60
8945;DHT22;4507;40.232;29.132;2023-05-02T16:20:37;24.10;34.00